Aeroporto :
LOGIN :

Iscrizione | Disclaimer

   EN    FR    IT 

 










Sommario :    VFR   VFR Marginale   IFR   IFR Intensivo   IFR Molto Intensivo
Visibilità : 
Base nubi : 
>= 8 km
>= 3000ft
5 / 8 km
1000 / 3000 ft
1500m / 5 km
500 / 1000 ft
800 / 1500m
200 / 500 ft
< 800m
< 200 ft
Simboli :   Temporali  Nebbia  Neve Forte  Precipitazioni Forti  Vento > 20 kt
SIGMETs :   Varie  Temporali  Ghiacco  Turbolenza  Onda orograficha  Ceneri Vulcaniche






- Altitudine del aeroporto : 1585 ft
- Codice IATA : SIR


LSGS - Sion

ULTIMO METAR :
  • 220720Z 07001KT 8000 SCT080 SCT150 02/02 Q1008

METARs OBSOLETI :
  • 220650Z VRB01KT 9000 SCT080 SCT150 02/02 Q1009
  • 220620Z VRB01KT 8000 SCT090 01/01 Q1009
  • 220550Z VRB02KT 9999 SCT080 02/02 Q1009
  • 220520Z AUTO 27002KT 6000 FEW110 02/02 Q1009
  • 220450Z AUTO VRB03KT 8000 FEW120 02/02 Q1008

TAF TAF LSGS
Valido dal 22 a 06 ore il 22 a 15 ore UTC


220525Z 2206/2215 05007KT 8000 SCT140



MetMap, La meteo Aeronautica in un colpo d'occhio ! - Copyright ORBIFLY Dicembre 2007 - Disclaimer

ORBIFLY MET'MAP TEAM :

Programmazione e sviluppo : Alexandra Zaïnal
Concezione e sviluppo : Baudouin d'Aumeries
Co-Programmazione e sviluppo : Marc-Olivier Méhu
Supporto tecnico e logistico : Manuel Goepfert
Aiuto per la traduzione : Arnaldo La Scala

Contatto : metmap@orbifly.com




FONTI E CREDITI :

   NOAA